Flight Track Log - Related Links

Times and Time Zones

All times are in EDT time to prevent confusion due to time zone crossing. See the ASQ6041 flight status page for this flight to view local times or setup timezone preferences in your user account.

Time Position Orientation Groundspeed Altitude Reporting Facility
EDT Latitude Longitude Course Direction KTS MPH feet Rate Location/Type
Sun 02:29:43 PM 40.7736 -96.7856 207° Southwest 222 255 3,100  Level Minneapolis Center
Sun 02:30:04 PM 40.7717 -96.8053 263° West 228 262 3,500 1,663 Climbing Minneapolis Center
Sun 02:31:00 PM 40.8156 -97.1463 253° West  Level Estimated
Sun 02:31:06 PM 40.7556 -96.8947 257° West 250 288 5,400  Level Minneapolis Center
Sun 02:32:00 PM 40.8036 -97.2753 257° West  Level Estimated
Sun 02:32:08 PM 40.7442 -96.9917 261° West 265 305 7,800  Level Minneapolis Center
Sun 02:33:00 PM 40.7846 -97.4027 259° West  Level FlightAware Approximate
Sun 02:33:10 PM 40.7372 -97.0900 265° West 268 308 10,000  Level Minneapolis Center
Sun 02:34:00 PM 40.7724 -97.5316 246° West  Level Estimated
Sun 02:34:12 PM 40.7242 -97.2231 263° West 301 346 11,000  Level Minneapolis Center
Sun 02:35:14 PM 40.7119 -97.3508 263° West 339 390 12,300 1,403 Climbing Minneapolis Center
Sun 02:36:16 PM 40.6983 -97.4897 263° West 354 407 13,900 1,452 Climbing Minneapolis Center
Sun 02:37:18 PM 40.6861 -97.6236 263° West 363 418 15,300 1,392 Climbing Minneapolis Center
Sun 02:38:21 PM 40.6725 -97.7589 262° West 370 426 16,800 1,392 Climbing Minneapolis Center
Sun 02:39:23 PM 40.6589 -97.8942 262° West 371 427 18,200 1,403 Climbing Minneapolis Center
Sun 02:40:25 PM 40.6456 -98.0303 263° West 373 429 19,700 1,403 Climbing Minneapolis Center
Sun 02:41:27 PM 40.6319 -98.1667 263° West 373 429 21,100 1,403 Climbing Minneapolis Center
Sun 02:42:29 PM 40.6181 -98.3008 262° West 370 426 22,600 1,500 Climbing Minneapolis Center
Sun 02:43:31 PM 40.6053 -98.4603 264° West 366 421 24,200 1,452 Climbing Minneapolis Center
Sun 02:44:33 PM 40.6192 -98.5931 278° West 366 421 25,600 1,403 Climbing Minneapolis Center
Sun 02:45:35 PM 40.6306 -98.7250 277° West 362 417 27,100 1,355 Climbing Minneapolis Center
Sun 02:46:37 PM 40.6417 -98.8578 276° West 362 417 28,400 1,645 Climbing Minneapolis Center
Sun 02:47:39 PM 40.6533 -98.9889 277° West 361 415 30,500 1,645 Climbing Minneapolis Center
Sun 02:48:41 PM 40.6639 -99.1125 276° West 346 398 31,800 1,210 Climbing Minneapolis Center
Sun 02:49:43 PM 40.6750 -99.2356 277° West 340 391 33,000 1,161 Climbing Minneapolis Center
Sun 02:50:45 PM 40.6867 -99.3861 276° West 342 394 34,200 1,056 Climbing Minneapolis Center
Sun 02:51:48 PM 40.6975 -99.5111 277° West 343 395 35,200 864 Climbing Minneapolis Center
Sun 02:52:50 PM 40.7078 -99.6361 276° West 342 394 36,000 387 Climbing Minneapolis Center
Sun 02:53:52 PM 40.7181 -99.7650 276° West 348 400 36,000  Level Minneapolis Center
Sun 02:54:54 PM 40.7289 -99.9044 276° West 370 426 36,000  Level Minneapolis Center
Sun 02:55:56 PM 40.7408 -100.0508 276° West 391 450 36,000  Level Minneapolis Center
Sun 02:56:58 PM 40.7522 -100.2058 276° West 411 473 36,000  Level Minneapolis Center
Sun 02:58:00 PM 40.7675 -100.3983 276° West 427 491 36,000  Level Minneapolis Center
Sun 02:59:02 PM 40.7794 -100.5592 276° West 435 501 36,000  Level Minneapolis Center
Sun 03:00:23 PM 40.7603 -100.7803 264° West 465 535 36,000  Level Denver Center
Sun 03:01:25 PM 40.7403 -100.9319 260° West 440 506 36,000  Level Denver Center
Sun 03:02:27 PM 40.7197 -101.0581 258° West 440 506 36,000  Level Denver Center
Sun 03:03:29 PM 40.6847 -101.2583 257° West 438 504 36,000  Level Denver Center
Sun 03:04:31 PM 40.6589 -101.4064 257° West 434 499 36,000  Level Denver Center
Sun 03:05:33 PM 40.6281 -101.5789 257° West 434 499 36,000  Level Denver Center
Sun 03:06:35 PM 40.6014 -101.7267 257° West 434 499 36,000  Level Denver Center
Sun 03:07:38 PM 40.5694 -101.9014 257° West 440 506 36,000  Level Denver Center
Sun 03:08:40 PM 40.5422 -102.0511 257° West 439 505 36,000  Level Denver Center
Sun 03:09:42 PM 40.5100 -102.2236 256° West 436 502 36,000  Level Denver Center
Sun 03:10:44 PM 40.4831 -102.3719 257° West 437 503 36,000 -726 Level Denver Center
Sun 03:11:46 PM 40.4506 -102.5461 256° West 440 506 34,500 -1,839 Descending Denver Center
Sun 03:12:48 PM 40.4233 -102.6956 257° West 431 496 32,200 -2,177 Descending Denver Center
Sun 03:13:50 PM 40.3939 -102.8486 256° West 431 496 30,000 -1,985 Descending Denver Center
Sun 03:15:04 PM 40.3644 -103.0086 256° West 445 512 27,700 -2,234 Descending Denver Center
Sun 03:16:07 PM 40.3261 -103.2022 256° West 456 525 24,900 -2,640 Descending Denver Center
Sun 03:17:09 PM 40.2906 -103.3894 256° West 448 516 22,200 -2,323 Descending Denver Center
Sun 03:18:11 PM 40.2625 -103.5406 256° West 434 499 20,100 -1,984 Descending Denver Center
Sun 03:19:13 PM 40.2333 -103.6858 255° West 420 483 18,100 -1,500 Descending Denver Center
Sun 03:20:15 PM 40.2419 -103.8297 275° West 379 436 17,000 -726 Descending Denver Center
Sun 03:21:17 PM 40.2628 -103.9492 283° West 322 371 16,600 -919 Descending Denver Center
Sun 03:22:19 PM 40.2431 -104.0325 253° West 264 304 15,100 -1,548 Descending Denver Center
Sun 03:23:21 PM 40.1925 -104.1144 231° Southwest 270 311 13,400 -1,452 Descending Denver Center
Sun 03:24:23 PM 40.1214 -104.1361 193° South 269 310 12,100 -1,355 Descending Denver Center
Sun 03:25:25 PM 40.0514 -104.1547 192° South 260 299 10,600 -1,016 Descending Denver Center
Sun 03:26:27 PM 39.9797 -104.1731 191° South 247 284 10,000 -290 Descending Denver Center
Sun 03:27:29 PM 39.9372 -104.2372 229° Southwest 248 285 10,000 -192 Level Denver Center
Sun 03:28:32 PM 39.9047 -104.3153 242° Southwest 231 266 9,600 -576 Descending Denver Center
Sun 03:29:34 PM 39.8797 -104.3806 243° Southwest 206 237 8,800 -968 Descending Denver Center
Sun 03:30:36 PM 39.8758 -104.4581 266° West 201 231 7,600 -1,065 Descending Denver Center
Sun 03:31:38 PM 39.8764 -104.5281 271° West 194 223 6,600 -871 Descending Denver Center
Sun 03:32:40 PM 39.8772 -104.5892 271° West 158 182 5,800 -581 Descending Denver Center
Sun 03:33:42 PM 39.8775 -104.6450 270° West 150 173 5,400 -387 Descending Denver Center

Login

Don't have an account? Register now (free) for customized features, flight alerts, and more!